Latest Weather Observations for Gatton

IDQ60801

Issued at 4:22 pm EST Saturday 5 December 2020 (issued every 10 minutes, with the page automatically refreshed every 10 minutes)

About weather observations | Map of weather stations | Latest weather observations for QLD | Other Formats
Station Details ID: 040082 Name: UNIVERSITY OF QUEENSLAND GATTON Lat: -27.54 Lon: 152.34 Height: 89.0 m
Data from the previous 72 hours. | See also: Recent months at Gatton
Date/Time
EST
Temp
°C
App
Temp
°C
Dew
Point
°C
Rel
Hum
%
Delta-T
°C
Wind Press
QNH
hPa
Press
MSL
hPa
Rain since
9am
mm
Dir  Spd
km/h
Gust
km/h
Spd
kts
Gust
kts
05/04:00pm 36.6 34.5 17.2 31 12.6 NE 24 35 13 19 - - 0.0
05/03:30pm 37.5 35.7 15.9 28 13.8 NE 20 32 11 17 - - 0.0
05/03:00pm 38.2 35.5 13.4 23 15.3 NE 20 28 11 15 - - 0.0
05/02:30pm 39.7 37.6 12.5 20 16.7 ENE 15 30 8 16 - - 0.0
05/02:00pm 39.0 36.2 12.7 21 16.1 ENE 19 32 10 17 - - 0.0
05/01:30pm 38.5 35.3 13.0 22 15.7 NNE 22 32 12 17 - - 0.0
05/01:00pm 39.2 36.7 13.6 22 15.9 NNE 19 28 10 15 - - 0.0
05/12:30pm 37.7 35.8 14.3 25 14.6 NE 17 28 9 15 - - 0.0
05/12:00pm 37.3 35.9 14.6 26 14.2 ENE 15 26 8 14 - - 0.0
05/11:30am 35.7 33.7 14.9 29 13.0 N 19 24 10 13 - - 0.0
05/11:00am 34.8 33.8 16.6 33 11.6 ENE 17 26 9 14 - - 0.0
05/10:30am 34.0 34.6 17.7 38 10.5 NE 11 22 6 12 - - 0.0
05/10:00am 33.6 33.4 18.5 40 9.9 NE 17 32 9 17 - - 0.0
05/09:30am 32.1 32.7 18.7 45 8.7 ENE 13 22 7 12 - - 0.0
05/09:00am 30.5 31.8 19.2 51 7.4 ESE 11 19 6 10 - - 0.0
05/08:30am 29.6 31.7 19.3 54 6.7 ENE 7 15 4 8 - - 0.0
05/08:00am 28.4 30.0 19.1 57 6.0 NE 9 17 5 9 - - 0.0
05/07:30am 28.0 29.6 19.2 58 5.7 E 9 13 5 7 - - 0.0
05/07:00am 26.8 28.9 19.4 64 4.8 E 7 9 4 5 - - 0.0
05/06:30am 26.0 28.2 19.2 66 4.4 NE 6 7 3 4 - - 0.0
05/06:00am 25.0 28.3 19.1 70 3.8 CALM 0 6 0 3 - - 0.0
05/05:30am 22.6 24.9 18.6 78 2.5 W 4 6 2 3 - - 0.0
05/05:00am 21.1 23.6 17.3 79 2.3 CALM 0 0 0 0 - - 0.0
05/04:30am 21.1 23.5 17.1 78 2.5 CALM 0 0 0 0 - - 0.0
05/04:00am 21.5 24.1 17.5 78 2.5 CALM 0 0 0 0 - - 0.0
05/03:30am 22.0 24.7 17.8 77 2.6 CALM 0 0 0 0 - - 0.0
05/03:00am 22.5 25.1 17.6 74 3.0 CALM 0 0 0 0 - - 0.0
05/02:30am 23.0 25.9 18.1 74 3.1 CALM 0 0 0 0 - - 0.0
05/02:00am 23.6 26.7 18.7 74 3.1 CALM 0 0 0 0 - - 0.0
05/01:30am 23.9 25.8 19.0 74 3.1 ESE 7 9 4 5 - - 0.0
05/01:00am 24.2 25.5 19.3 74 3.1 SSE 11 19 6 10 - - 0.0
05/12:30am 24.5 25.4 19.3 73 3.3 SSE 13 22 7 12 - - 0.0
05/12:00am 24.5 25.6 18.9 71 3.6 SSE 11 15 6 8 - - 0.0
 
Date/Time
EST
Temp
°C
App
Temp
°C
Dew
Point
°C
Rel
Hum
%
Delta-T
°C
Wind Press
QNH
hPa
Press
MSL
hPa
Rain since
9am
mm
Dir  Spd
km/h
Gust
km/h
Spd
kts
Gust
kts
04/11:30pm 25.0 27.2 19.1 70 3.8 SSE 6 6 3 3 - - 0.0
04/11:00pm 25.6 27.8 19.3 68 4.1 WNW 6 9 3 5 - - 0.0
04/10:30pm 25.6 27.5 19.0 67 4.2 N 7 9 4 5 - - 0.0
04/10:00pm 26.1 27.7 19.2 65 4.4 ESE 9 17 5 9 - - 0.0
04/09:30pm 26.7 25.5 19.3 64 4.8 SE 24 32 13 17 - - 0.0
04/09:00pm 27.6 26.1 19.4 61 5.3 SE 26 35 14 19 - - 0.0
04/08:30pm 28.6 28.7 19.2 56 6.1 SE 17 26 9 14 - - 0.0
04/08:00pm 30.3 31.3 18.7 50 7.5 SE 11 15 6 8 - - 0.0
04/07:30pm 32.1 32.4 18.7 45 8.7 NE 15 19 8 10 - - 0.0
04/07:00pm 33.5 33.8 18.0 39 10.0 ENE 13 17 7 9 - - 0.0
04/06:30pm 34.9 34.3 17.6 35 11.2 ENE 17 20 9 11 - - 0.0
04/06:00pm 36.5 34.2 16.6 30 12.8 E 24 28 13 15 - - 0.0
04/05:30pm 38.2 35.7 14.1 24 15.0 SE 20 26 11 14 - - 0.0
04/05:00pm 39.0 37.2 12.0 20 16.4 SSW 13 19 7 10 - - 0.0
04/04:30pm 39.7 36.9 12.5 20 16.7 SSW 19 24 10 13 - - 0.0
04/04:00pm 39.5 38.2 13.8 22 16.0 WSW 13 26 7 14 - - 0.0
04/03:30pm 39.4 39.1 14.4 22 15.7 WSW 9 24 5 13 - - 0.0
04/03:00pm 38.4 38.3 14.9 25 14.8 SSW 9 22 5 12 - - 0.0
04/02:30pm 37.8 37.3 15.0 26 14.4 W 11 20 6 11 - - 0.0
04/02:00pm 36.9 36.6 15.4 28 13.6 S 11 19 6 10 - - 0.0
04/01:30pm 36.4 37.1 16.0 29 13.0 SW 7 13 4 7 - - 0.0
04/01:00pm 36.0 36.4 17.2 33 12.1 E 11 19 6 10 - - 0.0
04/12:30pm 34.6 35.0 17.3 35 11.1 SSE 11 17 6 9 - - 0.0
04/12:00pm 34.6 36.0 17.8 37 10.9 SSW 7 13 4 7 - - 0.0
04/11:30am 33.4 34.1 18.0 40 10.0 S 11 17 6 9 - - 0.0
04/11:00am 32.7 32.9 17.7 40 9.7 E 13 22 7 12 - - 0.0
04/10:30am 31.0 31.7 18.0 45 8.4 N 11 20 6 11 - - 0.0
04/10:00am 30.1 30.0 17.9 48 7.8 N 15 22 8 12 - - 0.0
04/09:30am 30.5 30.9 18.2 47 7.9 N 13 28 7 15 - - 0.0
04/09:00am 29.2 30.3 18.0 51 7.2 NNW 9 17 5 9 - - 0.0
04/08:30am 29.3 30.8 19.0 53 6.7 NNW 9 15 5 8 - - 0.0
04/08:00am 27.7 29.1 18.7 58 5.8 N 9 15 5 8 - - 0.0
04/07:30am 26.6 28.4 18.7 62 5.1 NNE 7 13 4 7 - - 0.0
04/07:00am 25.9 27.6 18.6 64 4.7 N 7 13 4 7 - - 0.0
04/06:30am 25.0 26.1 18.9 69 3.9 NNE 11 15 6 8 - - 0.0
04/06:00am 24.1 25.7 19.2 74 3.1 E 9 13 5 7 - - 0.0
04/05:30am 23.5 24.3 19.0 76 2.9 ENE 13 17 7 9 - - 0.0
04/05:00am 23.7 23.5 18.6 73 3.2 ENE 17 20 9 11 - - 0.0
04/04:30am 23.9 24.8 19.2 75 3.0 NE 13 17 7 9 - - 0.0
04/04:00am 23.8 25.0 19.1 75 3.0 E 11 15 6 8 - - 0.0
04/03:30am 24.0 25.2 19.1 74 3.1 ESE 11 15 6 8 - - 0.0
04/03:00am 24.0 25.6 19.1 74 3.1 SSE 9 13 5 7 - - 0.0
04/02:30am 23.9 26.4 19.0 74 3.1 S 4 7 2 4 - - 0.0
04/02:00am 23.8 25.7 18.9 74 3.1 SE 7 9 4 5 - - 0.0
04/01:30am 23.8 25.6 18.7 73 3.2 SE 7 9 4 5 - - 0.0
04/01:00am 24.0 25.0 18.6 72 3.4 SSE 11 17 6 9 - - 0.0
04/12:30am 24.4 26.3 19.0 72 3.5 SE 7 11 4 6 - - 0.0
04/12:00am 24.1 25.6 18.1 69 3.8 ESE 7 11 4 6 - - 0.0
 
Date/Time
EST
Temp
°C
App
Temp
°C
Dew
Point
°C
Rel
Hum
%
Delta-T
°C
Wind Press
QNH
hPa
Press
MSL
hPa
Rain since
9am
mm
Dir  Spd
km/h
Gust
km/h
Spd
kts
Gust
kts
03/11:30pm 23.9 24.4 17.4 67 4.0 E 11 13 6 7 - - 0.0
03/11:00pm 24.3 24.5 16.8 63 4.6 E 11 15 6 8 - - 0.0
03/10:30pm 24.2 24.9 17.0 64 4.5 ESE 9 13 5 7 - - 0.0
03/10:00pm 24.3 24.7 16.3 61 4.9 ESE 9 13 5 7 - - 0.0
03/09:30pm 25.0 25.4 16.4 59 5.3 E 9 13 5 7 - - 0.0
03/09:00pm 25.7 25.8 16.5 56 5.7 E 11 17 6 9 - - 0.0
03/08:30pm 26.0 25.3 16.3 55 6.0 E 15 24 8 13 - - 0.0
03/08:00pm 26.7 25.3 16.9 55 6.1 E 20 28 11 15 - - 0.0
03/07:30pm 27.4 25.2 17.0 53 6.5 E 24 28 13 15 - - 0.0
03/07:00pm 28.1 25.9 17.0 51 7.0 E 24 30 13 16 - - 0.0
03/06:30pm 29.0 26.8 16.9 48 7.6 ENE 24 32 13 17 - - 0.0
03/06:00pm 30.0 27.8 16.8 45 8.3 E 24 33 13 18 - - 0.0
03/05:30pm 31.3 28.7 16.8 41 9.2 E 26 32 14 17 - - 0.0
03/05:00pm 32.2 29.2 16.9 40 9.7 E 28 35 15 19 - - 0.0
03/04:30pm 33.1 30.9 16.9 38 10.3 E 24 33 13 18 - - 0.0
03/04:00pm 32.9 30.8 16.3 37 10.5 ENE 22 30 12 16 - - 0.0
03/03:30pm 33.3 31.8 16.2 36 10.8 ESE 19 28 10 15 - - 0.0
03/03:00pm 33.5 32.4 16.4 36 10.8 NE 17 30 9 16 - - 0.0
03/02:30pm 34.0 32.7 16.8 35 11.0 ENE 19 30 10 16 - - 0.0
03/02:00pm 33.4 32.4 16.7 36 10.6 ENE 17 28 9 15 - - 0.0
03/01:30pm 33.5 31.9 16.4 36 10.8 ENE 20 35 11 19 - - 0.0
03/01:00pm 33.6 32.3 16.9 37 10.7 ENE 19 32 10 17 - - 0.0
03/12:30pm 33.7 31.5 17.0 37 10.7 ENE 24 30 13 16 - - 0.0
03/12:00pm 32.8 31.4 17.0 38 10.1 NE 20 37 11 20 - - 0.0
03/11:30am 31.7 30.0 17.2 42 9.2 E 22 35 12 19 - - 0.0
03/11:00am 30.7 29.6 17.7 45 8.3 NE 20 28 11 15 - - 0.0
03/10:30am 31.7 30.3 18.7 46 8.5 E 24 33 13 18 - - 0.0
03/10:00am 30.8 31.1 18.8 48 7.8 E 15 26 8 14 - - 0.0
03/09:30am 28.2 28.9 18.9 57 6.0 NE 13 22 7 12 - - 0.0
03/09:00am 28.0 28.4 19.8 61 5.4 ENE 17 26 9 14 - - 0.0
03/08:30am 27.1 28.1 20.2 66 4.5 ENE 15 22 8 12 - - 0.0
03/08:00am 26.9 27.5 20.3 67 4.3 E 17 22 9 12 - - 0.0
03/07:30am 26.2 26.8 20.3 70 3.9 E 17 22 9 12 - - 0.0
03/07:00am 25.7 26.0 20.3 72 3.5 E 19 24 10 13 - - 0.0
03/06:30am 25.5 26.5 20.3 73 3.4 ESE 15 20 8 11 - - 0.0
03/06:00am 25.4 27.5 20.2 73 3.4 E 9 11 5 6 - - 0.0
03/05:30am 24.8 26.5 20.1 75 3.1 E 11 13 6 7 - - 0.0
03/05:00am 24.3 25.4 19.6 75 3.0 E 13 15 7 8 - - 0.0
03/04:30am 24.2 24.9 19.7 76 2.9 E 15 19 8 10 - - 0.0
03/04:00am 24.5 26.2 20.2 77 2.8 ENE 11 15 6 8 - - 0.0
03/03:30am 24.8 26.2 20.3 76 2.9 NE 13 19 7 10 - - 0.0
03/03:00am 24.9 26.7 20.4 76 2.9 NE 11 15 6 8 - - 0.0
03/02:30am 25.1 25.5 20.6 76 3.0 ENE 19 26 10 14 - - 0.0
03/02:00am 25.3 25.6 20.3 74 3.3 ENE 19 22 10 12 - - 0.0
03/01:30am 25.6 27.7 20.2 72 3.5 ESE 9 15 5 8 - - 0.0
03/01:00am 25.8 27.2 20.4 72 3.5 SE 13 17 7 9 - - 0.0
03/12:30am 25.9 26.5 20.2 71 3.7 ESE 17 20 9 11 - - 0.0
03/12:00am 26.0 27.2 20.6 72 3.6 ESE 15 22 8 12 - - 0.0
 
Date/Time
EST
Temp
°C
App
Temp
°C
Dew
Point
°C
Rel
Hum
%
Delta-T
°C
Wind Press
QNH
hPa
Press
MSL
hPa
Rain since
9am
mm
Dir  Spd
km/h
Gust
km/h
Spd
kts
Gust
kts
02/11:30pm 26.0 25.8 20.6 72 3.6 E 22 32 12 17 - - 0.0
02/11:00pm 26.2 24.7 20.3 70 3.9 E 28 37 15 20 - - 0.0
02/10:30pm 26.3 25.2 20.2 69 4.0 E 26 37 14 20 - - 0.0
02/10:00pm 26.4 24.3 19.8 67 4.3 ESE 30 41 16 22 - - 0.0
02/09:30pm 26.5 26.5 20.1 68 4.2 ESE 20 30 11 16 - - 0.0
02/09:00pm 26.6 27.5 20.9 71 3.8 SE 17 28 9 15 - - 0.0
02/08:30pm 27.0 28.1 21.3 71 3.8 ESE 17 24 9 13 - - 0.0
02/08:00pm 27.5 27.4 20.8 67 4.4 ESE 22 30 12 16 - - 0.0
02/07:30pm 28.7 28.5 19.3 56 6.1 SE 19 26 10 14 - - 0.0
02/07:00pm 29.4 28.9 19.1 54 6.7 SE 20 28 11 15 - - 0.0
02/06:30pm 29.9 31.0 19.6 54 6.8 SSE 13 22 7 12 - - 0.0
02/06:00pm 31.1 31.6 20.1 52 7.3 SE 17 26 9 14 - - 0.0
02/05:30pm 32.0 32.1 20.3 50 7.8 ESE 20 26 11 14 - - 0.0
02/05:00pm 34.3 34.1 20.6 44 9.2 E 22 30 12 16 - - 0.0
02/04:30pm 35.7 34.7 21.2 43 9.9 ESE 28 39 15 21 - - 0.0

Other formats

Comma delimited format used in spreadsheet applications
http://www.bom.gov.au/fwo/IDQ60801/IDQ60801.94562.axf

JavaScript Object Notation format (JSON) in row-major order
http://www.bom.gov.au/fwo/IDQ60801/IDQ60801.94562.json

Data quality

Most of these data are generated automatically and are frequently updated. Quality checks on data are not normally performed. It is possible for incorrect values to appear. Refer to information at About Latest Weather Observations and please check the disclaimer before using these data.